Latest Weather Observations for South Johnstone

IDQ60801

Issued at 12:32 pm EST Sunday 26 June 2016 (issued every 30 minutes, with the page automatically refreshed every 10 minutes)

About weather observations | Map of weather stations | Latest weather observations for QLD | Other Formats
Station Details ID: 032037 Name: SOUTH JOHNSTONE EXP STN Lat: -17.61 Lon: 146.00 Height: 18.3 m
Data from the previous 72 hours. | See also: Recent months at South Johnstone
Date/Time
EST
Temp
°C
App
Temp
°C
Dew
Point
°C
Rel
Hum
%
Delta-T
°C
Wind Press
QNH
hPa
Press
MSL
hPa
Rain since
9am
mm
Dir  Spd
km/h
Gust
km/h
Spd
kts
Gust
kts
26/12:30pm 24.3 26.4 21.7 85 1.7 SSE 13 22 7 12 1015.3 - 0.4
26/12:00pm 24.6 27.9 21.9 85 1.8 SSE 7 15 4 8 1015.8 1015.7 0.4
26/11:30am 23.4 28.1 22.0 92 0.9 CALM 0 0 0 0 1016.1 - 0.4
26/11:00am 22.9 26.5 22.0 95 0.6 SW 6 9 3 5 1016.5 - 0.4
26/10:30am 22.7 26.0 21.5 93 0.8 SW 6 9 3 5 1016.6 - 0.0
26/10:00am 22.7 27.2 21.6 93 0.7 CALM 0 0 0 0 1016.8 - 0.0
26/09:30am 22.4 25.6 21.3 93 0.7 SSW 6 7 3 4 1016.8 - 0.0
26/09:00am 22.0 26.3 21.2 95 0.5 CALM 0 0 0 0 1016.8 1016.7 2.6
26/08:30am 21.6 25.3 20.8 95 0.5 SW 2 9 1 5 1016.6 - 2.6
26/08:00am 21.3 25.4 20.7 96 0.4 CALM 0 0 0 0 1016.7 - 2.6
26/07:30am 21.3 25.4 20.7 96 0.4 CALM 0 0 0 0 1016.5 - 2.2
26/07:00am 21.2 25.2 20.6 96 0.4 CALM 0 0 0 0 1016.1 - 2.2
26/06:30am 21.1 25.1 20.6 97 0.3 CALM 0 6 0 3 1015.9 - 2.2
26/06:00am 21.2 25.2 20.6 96 0.4 CALM 0 0 0 0 1015.6 1015.5 2.2
26/05:30am 21.1 25.1 20.5 96 0.4 CALM 0 0 0 0 1015.3 - 2.0
26/05:00am 21.1 25.1 20.5 96 0.4 CALM 0 0 0 0 1015.1 - 2.0
26/04:30am 21.0 24.8 20.2 95 0.5 CALM 0 0 0 0 1014.9 - 2.0
26/04:00am 21.0 24.5 20.4 96 0.4 SSW 2 9 1 5 1014.7 - 2.0
26/03:30am 20.9 23.1 20.3 96 0.4 SSW 9 11 5 6 1014.7 - 2.0
26/03:00am 20.9 23.4 20.3 96 0.4 SW 7 9 4 5 1014.8 1014.7 2.0
26/02:30am 20.9 24.4 20.4 97 0.3 SW 2 7 1 4 1015.2 - 2.0
26/02:00am 20.9 24.4 20.4 97 0.3 SW 2 7 1 4 1015.2 - 2.0
26/01:30am 20.8 24.3 20.3 97 0.3 WSW 2 7 1 4 1015.6 - 2.0
26/01:00am 20.8 23.9 20.3 97 0.3 W 4 9 2 5 1015.8 - 1.8
26/12:30am 20.6 23.1 20.3 98 0.2 WSW 7 13 4 7 1016.1 - 1.8
26/12:00am 20.7 23.2 20.2 97 0.3 WSW 7 9 4 5 1016.4 1016.3 1.6
 
Date/Time
EST
Temp
°C
App
Temp
°C
Dew
Point
°C
Rel
Hum
%
Delta-T
°C
Wind Press
QNH
hPa
Press
MSL
hPa
Rain since
9am
mm
Dir  Spd
km/h
Gust
km/h
Spd
kts
Gust
kts
25/11:30pm 20.7 23.1 20.1 96 0.4 WSW 7 9 4 5 1016.7 - 1.4
25/11:00pm 20.8 23.5 20.2 96 0.4 WSW 6 7 3 4 1016.9 - 1.4
25/10:30pm 20.6 24.4 20.1 97 0.3 CALM 0 0 0 0 1017.0 - 1.0
25/10:00pm 20.6 23.6 20.1 97 0.3 WSW 4 9 2 5 1017.1 - 0.6
25/09:30pm 20.6 23.0 20.0 96 0.4 SW 7 11 4 6 1017.1 - 0.6
25/09:00pm 20.8 23.2 20.0 95 0.5 SW 7 11 4 6 1017.3 1017.2 0.2
25/08:30pm 21.0 23.9 19.9 93 0.7 SW 4 9 2 5 1017.2 - 0.2
25/08:00pm 21.1 24.3 19.7 92 0.9 SSW 2 7 1 4 1017.0 - 0.0
25/07:30pm 21.4 24.9 19.5 89 1.2 CALM 0 0 0 0 1016.7 - 0.0
25/07:00pm 21.5 24.0 19.1 86 1.5 SSW 4 6 2 3 1016.5 - 0.0
25/06:30pm 22.1 23.9 18.8 81 2.1 S 7 9 4 5 1016.3 - 0.0
25/06:00pm 22.5 24.2 18.5 78 2.5 SSW 7 11 4 6 1016.1 1016.0 0.0
25/05:30pm 23.2 25.5 18.6 75 2.9 SSE 4 7 2 4 1015.9 - 0.0
25/05:00pm 23.5 24.5 17.7 70 3.6 SSW 9 13 5 7 1015.7 - 0.0
25/04:30pm 23.7 24.8 17.9 70 3.6 S 9 13 5 7 1015.5 - 0.0
25/04:00pm 24.0 25.3 17.6 67 4.0 S 7 13 4 7 1015.4 - 0.0
25/03:30pm 24.3 24.8 17.4 65 4.3 S 11 19 6 10 1015.3 - 0.0
25/03:00pm 24.5 24.8 16.9 62 4.7 SSE 11 19 6 10 1015.2 1015.1 0.0
25/02:30pm 24.9 25.3 17.2 62 4.8 SSE 11 17 6 9 1015.3 - 0.0
25/02:00pm 24.9 24.7 16.6 60 5.1 SSE 13 19 7 10 1015.6 - 0.0
25/01:30pm 25.1 25.3 16.7 59 5.2 SSE 11 20 6 11 1016.0 - 0.0
25/01:00pm 25.5 25.2 16.4 57 5.6 SSE 13 20 7 11 1016.4 - 0.0
25/12:30pm 26.0 25.6 16.2 54 6.0 SSE 13 19 7 10 1016.9 - 0.0
25/12:00pm 26.0 25.6 16.2 54 6.0 SSE 13 22 7 12 1017.2 1017.1 0.0
25/11:30am 26.6 26.1 16.0 52 6.5 SE 13 20 7 11 1017.3 - 0.0
25/11:00am 25.5 24.8 15.4 53 6.1 S 13 22 7 12 1017.5 - 0.0
25/10:30am 25.3 25.2 15.9 56 5.7 S 11 19 6 10 1017.4 - 0.0
25/10:00am 25.1 25.7 17.6 63 4.7 S 11 19 6 10 1017.4 - 0.0
25/09:30am 24.8 26.0 18.3 67 4.1 S 9 15 5 8 1017.3 - 0.0
25/09:00am 24.7 26.6 18.9 70 3.7 S 7 13 4 7 1016.9 1016.8 0.0
25/08:30am 24.6 26.2 19.1 71 3.5 S 9 19 5 10 1016.7 - 0.0
25/08:00am 23.4 25.8 19.7 80 2.4 S 6 11 3 6 1016.4 - 0.0
25/07:30am 23.2 25.7 20.3 84 1.9 SSE 7 15 4 8 1016.1 - 0.0
25/07:00am 23.2 25.8 20.4 84 1.8 SW 7 13 4 7 1015.8 - 0.0
25/06:30am 23.4 25.2 20.3 83 2.0 SSW 11 20 6 11 1015.4 - 0.0
25/06:00am 21.8 26.2 21.3 97 0.3 CALM 0 6 0 3 1015.1 1015.0 0.0
25/05:30am 21.8 26.3 21.5 98 0.2 CALM 0 0 0 0 1015.0 - 0.0
25/05:00am 21.8 26.2 21.3 97 0.3 CALM 0 0 0 0 1014.7 - 0.0
25/04:30am 21.7 26.1 21.4 98 0.2 CALM 0 0 0 0 1014.5 - 0.0
25/04:00am 21.7 26.0 21.2 97 0.3 CALM 0 0 0 0 1014.3 - 0.0
25/03:30am 21.7 26.0 21.2 97 0.3 CALM 0 0 0 0 1014.2 - 0.0
25/03:00am 21.6 25.9 21.1 97 0.3 CALM 0 2 0 1 1014.4 1014.3 0.0
25/02:30am 21.7 26.0 21.2 97 0.3 CALM 0 0 0 0 1014.4 - 0.0
25/02:00am 21.7 26.0 21.2 97 0.3 CALM 0 0 0 0 1014.7 - 0.0
25/01:30am 21.6 24.5 21.1 97 0.3 WSW 7 13 4 7 1014.9 - 0.0
25/01:00am 21.8 26.2 21.3 97 0.3 CALM 0 0 0 0 1015.0 - 0.0
25/12:30am 21.8 26.1 21.2 96 0.4 CALM 0 0 0 0 1015.1 - 0.0
25/12:00am 21.6 25.9 21.1 97 0.3 CALM 0 0 0 0 1015.3 1015.2 0.0
 
Date/Time
EST
Temp
°C
App
Temp
°C
Dew
Point
°C
Rel
Hum
%
Delta-T
°C
Wind Press
QNH
hPa
Press
MSL
hPa
Rain since
9am
mm
Dir  Spd
km/h
Gust
km/h
Spd
kts
Gust
kts
24/11:30pm 22.0 25.7 21.4 96 0.4 WSW 4 11 2 6 1015.2 - 0.0
24/11:00pm 22.3 26.9 21.7 96 0.4 CALM 0 0 0 0 1015.4 - 0.0
24/10:30pm 22.6 27.3 22.0 96 0.4 CALM 0 2 0 1 1015.5 - 0.0
24/10:00pm 22.8 27.6 22.2 96 0.4 CALM 0 0 0 0 1015.4 - 0.0
24/09:30pm 23.2 27.4 22.5 96 0.5 SW 4 7 2 4 1015.3 - 0.0
24/09:00pm 23.4 28.5 22.7 96 0.5 CALM 0 0 0 0 1015.3 1015.2 0.0
24/08:30pm 23.8 29.0 22.9 95 0.6 CALM 0 0 0 0 1015.3 - 0.0
24/08:00pm 23.9 29.2 23.0 95 0.6 CALM 0 0 0 0 1014.9 - 0.0
24/07:30pm 24.2 29.5 23.0 93 0.8 CALM 0 0 0 0 1014.7 - 0.0
24/07:00pm 24.6 30.0 23.3 92 0.9 CALM 0 0 0 0 1014.5 - 0.0
24/06:30pm 25.2 30.6 23.3 89 1.3 CALM 0 0 0 0 1014.1 - 0.0
24/06:00pm 25.4 29.5 23.2 88 1.5 E 7 13 4 7 1013.7 1013.6 0.0
24/05:30pm 26.0 29.6 23.1 84 2.0 ESE 9 13 5 7 1013.5 - 0.0
24/05:00pm 26.5 30.6 23.3 82 2.2 ESE 7 11 4 6 1013.2 - 0.0
24/04:30pm 27.0 30.3 22.6 77 3.0 E 9 15 5 8 1013.0 - 0.0
24/04:00pm 27.4 30.3 22.4 74 3.4 ESE 11 17 6 9 1012.8 - 0.0
24/03:30pm 27.4 30.6 22.4 74 3.4 ESE 9 13 5 7 1012.4 - 0.0
24/03:00pm 27.8 30.6 22.3 72 3.7 E 11 17 6 9 1012.4 1012.3 0.0
24/02:30pm 28.5 31.6 22.8 71 3.9 E 11 17 6 9 1012.5 - 0.0
24/02:00pm 28.5 31.2 22.9 71 3.8 E 13 20 7 11 1012.7 - 0.0
24/01:30pm 28.4 31.6 23.1 73 3.6 ESE 11 17 6 9 1012.9 - 0.0
24/01:00pm 28.3 31.5 23.0 73 3.6 E 11 17 6 9 1013.2 - 0.0
24/12:30pm 29.0 33.0 23.8 73 3.6 E 9 13 5 7 1013.8 - 0.0
24/12:00pm 29.3 33.1 22.7 67 4.5 SSE 7 9 4 5 1014.3 1014.2 0.0
24/11:30am 29.0 33.2 21.7 64 4.9 W 2 7 1 4 1014.9 - 0.0
24/11:00am 28.5 32.4 21.8 67 4.5 SSW 4 11 2 6 1015.3 - 0.0
24/10:30am 27.7 30.9 21.7 70 4.0 SW 7 9 4 5 1015.4 - 0.0
24/10:00am 27.7 32.4 23.3 77 3.0 NE 4 7 2 4 1015.5 - 0.0
24/09:30am 26.7 31.2 23.0 80 2.5 WSW 4 9 2 5 1015.7 - 0.0
24/09:00am 25.2 29.0 22.7 86 1.7 SW 7 9 4 5 1015.4 1015.3 0.6
24/08:30am 24.0 27.9 22.5 91 1.0 WSW 6 11 3 6 1015.3 - 0.6
24/08:00am 22.7 27.5 22.1 96 0.4 CALM 0 0 0 0 1014.9 - 0.6
24/07:30am 22.3 26.9 21.8 97 0.3 CALM 0 0 0 0 1014.5 - 0.6
24/07:00am 22.1 26.6 21.6 97 0.3 CALM 0 0 0 0 1014.1 - 0.6
24/06:30am 21.9 26.4 21.6 98 0.2 CALM 0 0 0 0 1013.6 - 0.6
24/06:00am 21.8 26.3 21.5 98 0.2 CALM 0 0 0 0 1013.3 1013.2 0.6
24/05:30am 22.0 25.8 21.7 98 0.2 SW 4 7 2 4 1013.2 - 0.6
24/05:00am 22.0 25.1 21.5 97 0.3 WSW 7 11 4 6 1013.2 - 0.6
24/04:30am 22.1 26.7 21.8 98 0.2 CALM 0 0 0 0 1013.2 - 0.6
24/04:00am 22.4 27.1 21.9 97 0.3 CALM 0 0 0 0 1013.3 - 0.6
24/03:30am 22.5 26.1 22.0 97 0.3 SSW 6 9 3 5 1013.2 - 0.6
24/03:00am 22.7 27.5 22.2 97 0.3 CALM 0 0 0 0 1013.2 1013.1 0.6
24/02:30am 22.8 27.7 22.3 97 0.3 CALM 0 0 0 0 1013.3 - 0.6
24/02:00am 22.8 27.3 22.2 96 0.4 W 2 7 1 4 1013.6 - 0.6
24/01:30am 22.9 27.5 22.5 98 0.3 WSW 2 9 1 5 1013.8 - 0.6
24/01:00am 23.0 27.9 22.4 96 0.4 CALM 0 0 0 0 1014.1 - 0.6
24/12:30am 23.0 27.9 22.4 96 0.4 CALM 0 6 0 3 1014.1 - 0.6
24/12:00am 23.0 26.6 22.4 96 0.4 WSW 7 9 4 5 1014.2 1014.1 0.6
 
Date/Time
EST
Temp
°C
App
Temp
°C
Dew
Point
°C
Rel
Hum
%
Delta-T
°C
Wind Press
QNH
hPa
Press
MSL
hPa
Rain since
9am
mm
Dir  Spd
km/h
Gust
km/h
Spd
kts
Gust
kts
23/11:30pm 23.0 26.2 22.4 96 0.4 WSW 9 11 5 6 1014.3 - 0.6
23/11:00pm 23.0 26.6 22.4 96 0.4 WSW 7 9 4 5 1014.5 - 0.6
23/10:30pm 23.1 26.8 22.5 96 0.4 WSW 7 11 4 6 1014.5 - 0.6
23/10:00pm 23.1 26.4 22.5 96 0.4 WSW 9 11 5 6 1014.3 - 0.6
23/09:30pm 23.3 27.1 22.7 96 0.4 WSW 7 9 4 5 1014.1 - 0.6
23/09:00pm 23.6 28.8 22.9 96 0.5 CALM 0 6 0 3 1014.2 1014.1 0.6
23/08:30pm 23.8 28.0 23.1 96 0.5 WSW 6 7 3 4 1013.9 - 0.6
23/08:00pm 23.9 29.2 23.0 95 0.6 CALM 0 0 0 0 1013.8 - 0.6
23/07:30pm 24.0 29.3 23.0 94 0.7 CALM 0 0 0 0 1013.4 - 0.6
23/07:00pm 24.2 29.4 22.9 92 0.9 CALM 0 0 0 0 1013.1 - 0.6
23/06:30pm 24.2 29.0 22.9 92 0.9 SE 2 6 1 3 1012.8 - 0.6
23/06:00pm 24.5 28.6 22.9 91 1.1 SE 6 7 3 4 1012.8 1012.7 0.6
23/05:30pm 25.1 29.2 22.9 87 1.5 ESE 6 9 3 5 1012.3 - 0.6
23/05:00pm 25.4 29.5 22.9 86 1.7 SE 6 9 3 5 1012.1 - 0.6
23/04:30pm 25.8 29.7 23.0 84 1.9 SSE 7 13 4 7 1012.0 - 0.6
23/04:00pm 25.8 29.4 23.0 84 1.9 ESE 9 15 5 8 1011.9 - 0.6
23/03:30pm 25.8 28.9 22.8 83 2.0 ESE 11 15 6 8 1011.7 - 0.6
23/03:00pm 25.7 28.5 22.3 81 2.3 ESE 11 15 6 8 1011.8 1011.7 0.6
23/02:30pm 26.4 29.7 21.9 76 3.0 ESE 7 13 4 7 1011.8 - 0.6
23/02:00pm 26.1 29.8 22.5 80 2.4 SE 7 13 4 7 1012.1 - 0.6
23/01:30pm 25.5 29.0 22.8 85 1.8 S 9 15 5 8 1012.7 - 0.6
23/01:00pm 25.1 28.6 22.9 87 1.5 S 9 15 5 8 1013.2 - 0.6

Other Formats:

Comma delimited format used in spreadsheet applications
http://www.bom.gov.au/fwo/IDQ60801/IDQ60801.95292.axf

JavaScript Object Notation format (JSON) in row-major order
http://www.bom.gov.au/fwo/IDQ60801/IDQ60801.95292.json